createdAt,value
2019-05-15T00:02:14.387Z,13.38
2019-05-15T00:07:20.352Z,12.10
2019-05-15T00:12:28.292Z,15.97
2019-05-15T00:17:33.706Z,12.23
2019-05-15T00:22:39.809Z,16.03
2019-05-15T00:27:45.779Z,13.17
2019-05-15T00:32:51.746Z,14.85
2019-05-15T00:37:58.549Z,20.67
2019-05-15T00:43:03.717Z,19.70
2019-05-15T00:48:09.369Z,19.27
2019-05-15T00:53:15.428Z,27.33
2019-05-15T00:58:21.403Z,20.80
2019-05-15T01:03:27.947Z,14.67
2019-05-15T01:08:34.126Z,18.77
2019-05-15T01:13:40.137Z,20.30
2019-05-15T01:18:46.011Z,16.00
2019-05-15T01:23:52.198Z,19.43
2019-05-15T01:28:58.413Z,19.47
2019-05-15T01:34:04.470Z,16.27
2019-05-15T01:39:10.542Z,19.57
2019-05-15T01:44:17.936Z,18.53
2019-05-15T01:49:24.023Z,14.07
2019-05-15T01:54:30.229Z,16.07
2019-05-15T01:59:36.175Z,15.23
2019-05-15T02:04:42.082Z,18.23
2019-05-15T02:09:49.169Z,20.13
2019-05-15T02:14:55.234Z,16.47
2019-05-15T02:20:01.299Z,16.47
2019-05-15T02:25:08.568Z,18.53
2019-05-15T02:30:24.157Z,16.30
2019-05-15T02:35:22.546Z,16.90
2019-05-15T02:40:29.481Z,18.07
2019-05-15T02:45:37.740Z,19.60
2019-05-15T02:50:43.181Z,18.80
2019-05-15T02:55:49.709Z,20.73
2019-05-15T03:00:58.910Z,19.43
2019-05-15T03:06:03.667Z,22.50
2019-05-15T03:11:10.060Z,28.50
2019-05-15T03:16:19.096Z,27.53
2019-05-15T03:21:23.956Z,19.43
2019-05-15T03:26:30.147Z,18.47
2019-05-15T03:31:56.682Z,20.73
2019-05-15T03:36:45.735Z,25.30
2019-05-15T03:41:51.432Z,17.17
2019-05-15T03:46:59.611Z,20.23
2019-05-15T03:52:05.028Z,24.72
2019-05-15T03:57:10.889Z,18.97
2019-05-15T04:02:19.468Z,20.20
2019-05-15T04:07:24.582Z,21.77
2019-05-15T04:12:30.570Z,24.83
2019-05-15T04:17:39.610Z,20.43
2019-05-15T04:22:44.236Z,17.50
2019-05-15T04:27:50.722Z,18.80
2019-05-15T04:32:59.438Z,24.07
2019-05-15T04:38:04.565Z,21.73
2019-05-15T04:43:11.267Z,17.83
2019-05-15T04:48:19.973Z,20.57
2019-05-15T04:53:24.931Z,19.00
2019-05-15T04:58:30.867Z,21.17
2019-05-15T05:03:39.460Z,18.17
2019-05-15T05:08:44.634Z,24.83
2019-05-15T05:13:50.421Z,19.87
2019-05-15T05:18:59.251Z,23.00
2019-05-15T05:24:04.278Z,21.93
2019-05-15T05:29:10.210Z,18.50
2019-05-15T05:34:16.147Z,20.10
2019-05-15T05:39:22.261Z,22.10
2019-05-15T05:44:29.086Z,18.87
2019-05-15T05:49:35.107Z,22.80
2019-05-15T05:54:40.981Z,28.80
2019-05-15T06:39:39.211Z,25.90
2019-05-15T06:45:04.045Z,24.03
2019-05-15T06:50:33.987Z,25.70
2019-05-15T06:55:58.708Z,24.17
2019-05-15T07:01:23.405Z,24.77
2019-05-15T07:06:48.993Z,24.60
2019-05-15T07:12:13.939Z,28.87
2019-05-15T07:17:39.176Z,22.73
2019-05-15T07:23:04.189Z,24.03
2019-05-15T07:28:10.389Z,26.03
2019-05-15T07:33:20.265Z,26.93
2019-05-15T07:38:24.318Z,21.47
2019-05-15T07:43:30.369Z,24.23
2019-05-15T07:48:38.324Z,30.10
2019-05-15T07:53:44.086Z,30.47
2019-05-15T07:58:52.581Z,28.37
2019-05-15T08:04:14.336Z,26.20
2019-05-15T08:09:08.434Z,27.90
2019-05-15T08:14:14.210Z,22.00
2019-05-15T08:19:20.061Z,26.27
2019-05-15T08:24:29.754Z,21.93
2019-05-15T08:29:34.281Z,23.38
2019-05-15T08:34:41.548Z,20.50
2019-05-15T08:39:48.773Z,27.42
2019-05-15T08:44:54.753Z,27.58
2019-05-15T08:50:00.550Z,26.97
2019-05-15T08:55:08.537Z,18.37
2019-05-15T09:00:14.905Z,27.20
2019-05-15T09:05:20.918Z,23.52
2019-05-15T09:10:28.794Z,18.25
2019-05-15T09:15:34.698Z,23.52
2019-05-15T09:20:40.539Z,14.55
2019-05-15T09:31:31.685Z,16.07
2019-05-15T09:36:45.087Z,17.42
2019-05-15T09:41:50.304Z,17.48
2019-05-15T09:46:58.433Z,16.37
2019-05-15T09:52:05.786Z,14.03
2019-05-15T09:57:12.683Z,15.28
2019-05-15T10:02:19.724Z,17.10
2019-05-15T10:07:28.548Z,12.28
2019-05-15T10:12:38.461Z,14.90
2019-05-15T10:17:43.412Z,14.43
2019-05-15T10:22:49.536Z,12.65
2019-05-15T10:27:57.835Z,14.23
2019-05-15T10:33:03.215Z,15.48
2019-05-15T10:38:09.554Z,15.70
2019-05-15T10:43:20.509Z,15.13
2019-05-15T10:48:25.211Z,12.63
2019-05-15T10:53:31.266Z,16.87
2019-05-15T10:58:39.182Z,19.67
2019-05-15T11:03:44.975Z,12.60
2019-05-15T11:08:51.658Z,16.42
2019-05-15T11:14:00.344Z,16.62
2019-05-15T11:19:07.880Z,16.73
2019-05-15T11:24:14.080Z,12.80
2019-05-15T11:29:20.276Z,14.30
2019-05-15T11:34:28.787Z,13.22
2019-05-15T11:39:34.100Z,14.80
2019-05-15T11:44:40.529Z,19.65
2019-05-15T11:49:46.637Z,14.73
2019-05-15T11:54:52.597Z,11.40
2019-05-15T11:59:59.635Z,17.48
2019-05-15T12:05:05.970Z,22.48
2019-05-15T12:10:13.086Z,13.50
2019-05-15T12:15:19.292Z,15.68
2019-05-15T12:20:28.569Z,17.65
2019-05-15T12:25:34.823Z,21.02
2019-05-15T12:30:40.904Z,14.80
2019-05-15T12:35:50.298Z,15.55
2019-05-15T13:01:26.061Z,13.00
2019-05-15T13:06:39.997Z,16.77
2019-05-15T13:11:40.036Z,15.20
2019-05-15T13:16:48.047Z,11.90
2019-05-15T13:21:53.808Z,10.60
2019-05-15T13:26:59.717Z,10.35
2019-05-15T13:32:07.912Z,11.40
2019-05-15T13:37:26.353Z,14.80
2019-05-15T13:42:20.925Z,12.68
2019-05-15T13:47:28.158Z,14.65
2019-05-15T13:52:34.380Z,12.05
2019-05-15T13:57:40.246Z,10.78
2019-05-15T14:02:48.009Z,8.18
2019-05-15T14:07:53.959Z,12.68
2019-05-15T14:13:00.018Z,17.95
2019-05-15T14:18:08.322Z,11.78
2019-05-15T14:23:13.815Z,13.72
2019-05-15T14:28:19.775Z,17.17
2019-05-15T14:33:25.772Z,15.53
2019-05-15T14:38:31.844Z,16.65
2019-05-15T14:43:38.304Z,18.32
2019-05-15T14:48:44.506Z,19.20
2019-05-15T14:53:50.509Z,13.22
2019-05-15T14:58:58.609Z,12.60
2019-05-15T15:04:04.481Z,14.07
2019-05-15T15:09:10.443Z,13.65
2019-05-15T15:14:18.037Z,16.87
2019-05-15T15:19:24.272Z,16.80
2019-05-15T15:24:30.218Z,18.90
2019-05-15T15:29:38.417Z,12.75
2019-05-15T15:34:43.926Z,18.40
2019-05-15T15:39:49.886Z,16.73
2019-05-15T15:44:57.954Z,16.02
2019-05-15T15:50:04.386Z,14.60
2019-05-15T15:55:11.698Z,16.50
2019-05-15T16:00:18.527Z,19.50
2019-05-15T16:05:25.843Z,14.53
2019-05-15T16:10:32.066Z,15.60
2019-05-15T16:15:38.657Z,18.05
2019-05-15T16:20:44.626Z,18.60
2019-05-15T16:25:50.579Z,16.77
2019-05-15T16:30:58.536Z,16.80
2019-05-15T16:36:04.206Z,12.60
2019-05-15T16:41:10.262Z,16.85
2019-05-15T16:46:16.246Z,13.62
2019-05-15T16:51:22.248Z,15.48
2019-05-15T16:56:28.536Z,12.07
2019-05-15T17:01:34.380Z,17.45
2019-05-15T17:06:40.245Z,18.42
2019-05-15T17:11:49.011Z,14.43
2019-05-15T17:16:53.826Z,17.45
2019-05-15T17:22:00.213Z,17.07
2019-05-15T17:27:10.283Z,16.75
2019-05-15T17:32:13.896Z,16.02
2019-05-15T17:37:19.780Z,12.90
2019-05-15T17:42:25.883Z,14.23
2019-05-15T17:47:31.947Z,20.62
2019-05-15T17:52:38.977Z,16.40
2019-05-15T17:57:53.715Z,14.45
2019-05-15T18:02:52.930Z,18.67
2019-05-15T18:07:59.289Z,22.80
2019-05-15T18:13:05.480Z,20.40
2019-05-15T18:18:11.871Z,16.02
2019-05-15T18:23:18.924Z,17.12
2019-05-15T18:28:25.048Z,17.12
2019-05-15T18:33:31.201Z,19.75
2019-05-15T18:38:38.795Z,17.55
2019-05-15T18:43:45.147Z,17.92
2019-05-15T18:48:50.997Z,20.43
2019-05-15T18:53:58.850Z,21.87
2019-05-15T18:59:05.072Z,21.02
2019-05-15T19:04:13.922Z,21.07
2019-05-15T19:09:20.109Z,20.35
2019-05-15T19:14:27.962Z,18.57
2019-05-15T19:19:33.710Z,19.80
2019-05-15T19:24:40.246Z,17.25
2019-05-15T19:29:48.259Z,21.30
2019-05-15T19:34:54.482Z,19.12
2019-05-15T19:40:00.791Z,22.32
2019-05-15T19:45:08.591Z,19.80
2019-05-15T19:50:15.113Z,19.85
2019-05-15T19:55:21.270Z,18.80
2019-05-15T20:00:28.577Z,18.98
2019-05-15T20:05:34.891Z,16.93
2019-05-15T20:10:40.784Z,18.02
2019-05-15T20:15:48.564Z,17.25
2019-05-15T20:20:54.380Z,22.02
2019-05-15T20:26:00.473Z,19.12
2019-05-15T20:31:11.415Z,15.98
2019-05-15T20:36:18.269Z,20.25
2019-05-15T20:41:25.478Z,20.40
2019-05-15T20:46:31.370Z,20.88
2019-05-15T20:51:39.015Z,20.90
2019-05-15T20:56:45.122Z,22.42
2019-05-15T21:01:51.104Z,23.25
2019-05-15T21:06:57.191Z,19.40
2019-05-15T21:12:03.388Z,19.65
2019-05-15T21:17:09.596Z,25.25
2019-05-15T21:22:17.919Z,18.57
2019-05-15T21:27:24.791Z,25.20
2019-05-15T21:32:31.139Z,22.55
2019-05-15T21:37:38.846Z,23.65
2019-05-15T21:42:49.222Z,20.95
2019-05-15T21:47:55.529Z,23.57
2019-05-15T21:53:01.487Z,20.55
2019-05-15T21:58:08.730Z,20.32
2019-05-15T22:03:14.583Z,19.35
2019-05-15T22:08:20.642Z,21.30
2019-05-15T22:13:31.207Z,24.20
2019-05-15T22:18:34.348Z,20.45
2019-05-15T22:23:40.582Z,21.37
2019-05-15T22:28:48.821Z,20.45
2019-05-15T22:33:54.652Z,18.35
2019-05-15T22:39:00.514Z,19.67
2019-05-15T22:44:07.971Z,21.87
2019-05-15T22:49:14.152Z,19.37
2019-05-15T22:54:20.582Z,20.05
2019-05-15T22:59:28.339Z,21.37
2019-05-15T23:04:34.562Z,21.00
2019-05-15T23:09:40.561Z,24.40
2019-05-15T23:14:48.523Z,21.00
2019-05-15T23:19:54.733Z,19.07
2019-05-15T23:25:00.599Z,26.97
2019-05-15T23:30:09.017Z,26.40
2019-05-15T23:35:15.128Z,26.95
2019-05-15T23:40:21.169Z,27.60
2019-05-15T23:45:28.912Z,25.27
2019-05-15T23:50:35.093Z,26.57
2019-05-15T23:55:41.179Z,26.85
